Time;durP1;ratioP1;P1;durP2;ratioP2;P2;SDS_P1;SDS_P2;PMS_P1;PMS_P2;Temp;Humidity;BMP_temperature;BMP_pressure;BME280_temperature;BME280_humidity;BME280_pressure;Samples;Min_cycle;Max_cycle;Signal;HPM_P1;HPM_P2
2023/01/29 00:05:09;;;;;;;1999.90;999.90;;;-1.50;99.90;;;;;;6732752;88;20217;-74
2023/01/29 00:15:09;;;;;;;1999.90;999.90;;;-1.30;99.90;;;;;;6728188;88;20192;-75
2023/01/29 00:25:10;;;;;;;1999.90;999.90;;;-1.20;99.90;;;;;;6727761;88;20197;-75
2023/01/29 00:35:11;;;;;;;1999.90;999.90;;;-1.30;99.90;;;;;;6730711;88;20222;-74
2023/01/29 00:45:12;;;;;;;1999.90;999.90;;;-1.40;99.90;;;;;;6743403;88;20189;-75
2023/01/29 00:55:12;;;;;;;1999.90;999.90;;;-1.40;99.90;;;;;;6744906;88;20169;-77
2023/01/29 01:05:17;;;;;;;1999.90;999.90;;;-1.50;99.90;;;;;;6730954;88;20206;-76
2023/01/29 01:15:19;;;;;;;1999.90;999.90;;;-1.60;99.90;;;;;;6731101;88;20622;-76
2023/01/29 01:25:22;;;;;;;1999.90;999.90;;;-1.60;99.90;;;;;;6730723;88;20181;-72
2023/01/29 01:35:22;;;;;;;1999.90;999.90;;;-1.80;99.90;;;;;;6731731;88;20210;-73
2023/01/29 01:45:33;;;;;;;1999.90;999.90;;;-1.70;99.90;;;;;;6725414;88;21589;-73
2023/01/29 01:55:36;;;;;;;1999.90;999.90;;;-1.80;99.90;;;;;;6727906;88;20230;-73
2023/01/29 02:15:57;;;;;;;1999.90;999.90;;;-2.00;99.90;;;;;;6728864;88;20189;-73
2023/01/29 02:26:19;;;;;;;1999.90;999.90;;;-2.00;99.90;;;;;;6730503;88;20202;-73
2023/01/29 02:36:50;;;;;;;1999.90;999.90;;;-2.00;99.90;;;;;;6731301;88;20733;-74
2023/01/29 02:47:20;;;;;;;1999.90;999.90;;;-2.10;99.90;;;;;;6727909;88;20319;-74
2023/01/29 02:57:29;;;;;;;1999.90;999.90;;;-2.30;99.90;;;;;;6732464;88;20666;-74
2023/01/29 03:07:41;;;;;;;1999.90;999.90;;;-2.40;99.90;;;;;;6732613;88;20193;-73
2023/01/29 03:18:03;;;;;;;1999.90;999.90;;;-2.50;99.90;;;;;;6731572;88;20218;-73
2023/01/29 03:38:28;;;;;;;1999.90;999.90;;;-2.50;99.90;;;;;;6732708;88;20172;-74
2023/01/29 03:48:36;;;;;;;1999.90;999.90;;;-2.30;99.90;;;;;;6732672;88;20205;-74
2023/01/29 03:58:58;;;;;;;1999.90;999.90;;;-2.30;99.90;;;;;;6731820;88;20192;-74
2023/01/29 04:09:09;;;;;;;1999.90;999.90;;;-2.30;99.90;;;;;;6732260;88;20211;-74
2023/01/29 04:19:11;;;;;;;1999.90;999.90;;;-2.30;99.90;;;;;;6733793;88;20319;-74
2023/01/29 04:29:27;;;;;;;1999.90;999.90;;;-2.50;99.90;;;;;;6733248;88;20200;-75
2023/01/29 04:39:41;;;;;;;1999.90;999.90;;;-2.40;99.90;;;;;;6731345;88;20205;-75
2023/01/29 04:49:55;;;;;;;1999.90;999.90;;;-2.30;99.90;;;;;;6731733;88;20586;-75
2023/01/29 05:00:22;;;;;;;1999.90;999.90;;;-2.30;99.90;;;;;;6733114;88;20319;-74
2023/01/29 05:10:24;;;;;;;1999.90;999.90;;;-2.30;99.90;;;;;;6728650;88;21061;-75
2023/01/29 05:20:25;;;;;;;1999.90;999.90;;;-2.00;99.90;;;;;;6732312;88;20185;-75
2023/01/29 05:30:26;;;;;;;1999.90;999.90;;;-2.00;99.90;;;;;;6731176;88;20292;-75
2023/01/29 05:40:26;;;;;;;1999.90;999.90;;;-2.30;99.90;;;;;;6732342;88;20211;-74
2023/01/29 05:50:27;;;;;;;1999.90;999.90;;;-2.30;99.90;;;;;;6741617;88;20759;-75
2023/01/29 06:00:27;;;;;;;1999.90;999.90;;;-2.40;99.90;;;;;;6735285;88;20392;-74
2023/01/29 06:10:28;;;;;;;1999.90;999.90;;;-2.30;99.90;;;;;;6728467;88;20486;-74
2023/01/29 06:20:28;;;;;;;1999.90;999.90;;;-2.30;99.90;;;;;;6730569;88;20664;-74
2023/01/29 06:30:30;;;;;;;1999.90;999.90;;;-2.30;99.90;;;;;;6729400;88;20271;-75
2023/01/29 06:40:31;;;;;;;1999.90;999.90;;;-2.30;99.90;;;;;;6733097;88;21147;-75
2023/01/29 06:50:31;;;;;;;1999.90;999.90;;;-2.40;99.90;;;;;;6732619;88;20202;-74
2023/01/29 07:00:32;;;;;;;1999.90;999.90;;;-2.60;99.90;;;;;;6734137;88;20201;-75
2023/01/29 07:10:32;;;;;;;1999.90;999.90;;;-2.60;99.90;;;;;;6727175;88;20227;-75
2023/01/29 07:20:34;;;;;;;1999.90;999.90;;;-2.80;99.90;;;;;;6734026;88;20193;-74
2023/01/29 07:30:35;;;;;;;1999.90;999.90;;;-2.60;99.90;;;;;;6731061;88;20206;-74
2023/01/29 07:40:35;;;;;;;1999.90;999.90;;;-2.20;99.90;;;;;;6731659;88;20284;-74
2023/01/29 07:50:36;;;;;;;1999.90;999.90;;;-2.10;99.90;;;;;;6732517;88;20952;-74
2023/01/29 08:00:37;;;;;;;1999.90;999.90;;;-2.00;99.90;;;;;;6732912;88;20201;-74
2023/01/29 08:10:39;;;;;;;1999.90;999.90;;;-1.60;99.90;;;;;;6732924;88;20209;-73
2023/01/29 08:20:40;;;;;;;1999.90;999.90;;;-1.40;99.90;;;;;;6731599;88;20584;-74
2023/01/29 08:30:42;;;;;;;1999.90;999.90;;;-1.30;99.90;;;;;;6731189;88;20231;-74
2023/01/29 08:40:43;;;;;;;1999.90;999.90;;;-1.40;99.90;;;;;;6728501;88;20249;-74
2023/01/29 08:50:43;;;;;;;1999.90;999.90;;;-1.30;99.90;;;;;;6729276;88;20209;-75
2023/01/29 09:00:44;;;;;;;1999.90;999.90;;;-1.20;99.90;;;;;;6729234;88;20629;-75
2023/01/29 09:10:44;;;;;;;1999.90;999.90;;;-1.00;99.90;;;;;;6728973;88;20288;-75
2023/01/29 09:20:45;;;;;;;1999.90;999.90;;;-1.00;99.90;;;;;;6731259;88;21117;-74
2023/01/29 09:30:46;;;;;;;1999.90;999.90;;;-0.90;99.90;;;;;;6728912;88;20208;-75
2023/01/29 09:41:13;;;;;;;1999.90;999.90;;;-0.70;99.90;;;;;;6729613;88;20713;-75
2023/01/29 09:51:30;;;;;;;1999.90;999.90;;;-0.70;99.90;;;;;;6730483;88;20236;-76
2023/01/29 10:01:49;;;;;;;1999.90;999.90;;;-0.60;99.90;;;;;;6732818;88;20182;-76
2023/01/29 10:12:34;;;;;;;1999.90;999.90;;;-0.40;99.90;;;;;;6732300;88;20180;-75
2023/01/29 10:23:00;;;;;;;1999.90;999.90;;;-0.20;99.90;;;;;;6716703;88;20278;-80
2023/01/29 10:33:03;;;;;;;1999.90;999.90;;;0.10;99.90;;;;;;6729964;88;20307;-75
2023/01/29 10:43:28;;;;;;;1999.90;999.90;;;0.30;99.90;;;;;;6734531;88;20207;-75
2023/01/29 10:53:56;;;;;;;1999.90;999.90;;;0.20;99.90;;;;;;6735304;88;20237;-76
2023/01/29 11:04:05;;;;;;;1999.90;999.90;;;0.60;99.90;;;;;;6747919;88;20169;-74
2023/01/29 11:14:13;;;;;;;1999.90;999.90;;;1.30;99.90;;;;;;6756052;78;20216;-79
2023/01/29 11:24:17;;;;;;;1999.90;999.90;;;1.60;99.90;;;;;;6735278;88;20209;-80
2023/01/29 11:34:23;;;;;;;1999.90;999.90;;;1.50;99.90;;;;;;6745780;88;20284;-81
2023/01/29 11:44:33;;;;;;;1999.90;999.90;;;1.50;99.90;;;;;;6746839;87;20300;-78
2023/01/29 11:54:38;;;;;;;1999.90;999.90;;;1.40;99.90;;;;;;6736227;88;20243;-79
2023/01/29 12:04:39;;;;;;;1999.90;999.90;;;2.50;99.90;;;;;;6741839;88;20205;-78
2023/01/29 12:14:40;;;;;;;1999.90;999.90;;;3.10;99.90;;;;;;6735228;88;20208;-77
2023/01/29 12:24:58;;;;;;;1999.90;999.90;;;4.00;99.90;;;;;;6732262;88;20206;-79
2023/01/29 12:35:20;;;;;;;1999.90;999.90;;;5.50;99.90;;;;;;6733382;88;20611;-76
2023/01/29 12:45:23;;;;;;;1999.90;999.90;;;5.20;99.90;;;;;;6735438;88;20289;-78
2023/01/29 12:55:52;;;;;;;1999.90;999.90;;;5.20;99.90;;;;;;6739243;88;20213;-77
2023/01/29 13:06:15;;;;;;;1999.90;999.90;;;4.40;99.90;;;;;;6740653;88;20196;-80
2023/01/29 13:16:21;;;;;;;1999.90;999.90;;;3.50;99.90;;;;;;6739750;88;20632;-77
2023/01/29 13:26:22;;;;;;;1999.90;999.90;;;3.50;99.90;;;;;;6746689;88;20197;-76
2023/01/29 13:36:26;;;;;;;1999.90;999.90;;;3.90;99.90;;;;;;6751965;88;20173;-76
2023/01/29 13:46:28;;;;;;;1999.90;999.90;;;4.00;99.90;;;;;;6747290;88;20195;-77
2023/01/29 13:56:32;;;;;;;1999.90;999.90;;;3.40;99.90;;;;;;6740062;88;20181;-76
2023/01/29 14:06:40;;;;;;;1999.90;999.90;;;3.50;99.90;;;;;;6740386;88;20210;-75
2023/01/29 14:16:41;;;;;;;1999.90;999.90;;;3.10;99.90;;;;;;6737600;88;20307;-77
2023/01/29 14:26:44;;;;;;;1999.90;999.90;;;3.00;99.90;;;;;;6736205;88;20723;-76
2023/01/29 14:36:47;;;;;;;1999.90;999.90;;;3.20;99.90;;;;;;6738351;88;20169;-78
2023/01/29 14:46:48;;;;;;;1999.90;999.90;;;3.90;99.90;;;;;;6735438;88;20745;-77
2023/01/29 14:56:58;;;;;;;1999.90;999.90;;;4.00;99.90;;;;;;6735593;88;20328;-77
2023/01/29 15:07:03;;;;;;;1999.90;999.90;;;4.20;99.90;;;;;;6739397;88;20264;-78
2023/01/29 15:17:51;;;;;;;1999.90;999.90;;;4.00;99.90;;;;;;6753015;88;20206;-77
2023/01/29 15:27:55;;;;;;;1999.90;999.90;;;3.40;99.90;;;;;;6699125;88;20272;-77
2023/01/29 15:38:25;;;;;;;1999.90;999.90;;;3.30;99.90;;;;;;6734550;88;20658;-77
2023/01/29 15:48:44;;;;;;;1999.90;999.90;;;3.20;99.90;;;;;;6730837;88;20208;-77
2023/01/29 15:58:49;;;;;;;1999.90;999.90;;;3.00;99.90;;;;;;6739498;88;20201;-77
2023/01/29 16:08:53;;;;;;;1999.90;999.90;;;2.90;99.90;;;;;;6742945;88;20210;-77
2023/01/29 16:18:54;;;;;;;1999.90;999.90;;;2.50;99.90;;;;;;6731776;88;20211;-77
2023/01/29 16:28:56;;;;;;;1999.90;999.90;;;2.40;99.90;;;;;;6740239;88;20181;-76
2023/01/29 16:38:59;;;;;;;1999.90;999.90;;;2.20;99.90;;;;;;6744193;88;20199;-77
2023/01/29 16:49:00;;;;;;;1999.90;999.90;;;2.00;99.90;;;;;;6740671;88;20190;-77
2023/01/29 16:59:03;;;;;;;1999.90;999.90;;;1.90;99.90;;;;;;6741090;88;20205;-77
2023/01/29 17:20:14;;;;;;;1999.90;999.90;;;1.80;99.90;;;;;;6735141;88;20335;-76
2023/01/29 17:30:19;;;;;;;1999.90;999.90;;;1.80;99.90;;;;;;6721588;88;20218;-77
2023/01/29 17:40:31;;;;;;;1999.90;999.90;;;1.90;99.90;;;;;;6734894;88;20227;-75
2023/01/29 17:50:33;;;;;;;1999.90;999.90;;;2.00;99.90;;;;;;6735091;88;20718;-74
2023/01/29 18:00:34;;;;;;;1999.90;999.90;;;1.90;99.90;;;;;;6738112;88;20979;-75
2023/01/29 18:10:35;;;;;;;1999.90;999.90;;;1.90;99.90;;;;;;6747156;88;20170;-77
2023/01/29 18:20:37;;;;;;;1999.90;999.90;;;1.90;99.90;;;;;;6749078;88;20184;-77
2023/01/29 18:30:37;;;;;;;1999.90;999.90;;;1.90;99.90;;;;;;6740674;88;20204;-77
2023/01/29 18:40:38;;;;;;;1999.90;999.90;;;1.80;99.90;;;;;;6748204;88;21082;-76
2023/01/29 18:50:38;;;;;;;1999.90;999.90;;;1.70;99.90;;;;;;6741837;88;20206;-77
2023/01/29 19:00:39;;;;;;;1999.90;999.90;;;1.60;99.90;;;;;;6734389;88;20657;-76
2023/01/29 19:10:39;;;;;;;1999.90;999.90;;;1.50;99.90;;;;;;6737569;88;20719;-76
2023/01/29 19:20:41;;;;;;;1999.90;999.90;;;1.60;99.90;;;;;;6734944;88;20289;-75
2023/01/29 19:30:41;;;;;;;1999.90;999.90;;;1.40;99.90;;;;;;6733840;88;20495;-76
2023/01/29 19:40:42;;;;;;;1999.90;999.90;;;1.30;99.90;;;;;;6737277;88;20622;-75
2023/01/29 19:50:42;;;;;;;1999.90;999.90;;;1.30;99.90;;;;;;6736506;88;20521;-76
2023/01/29 20:00:43;;;;;;;1999.90;999.90;;;1.40;99.90;;;;;;6734874;88;20671;-75
2023/01/29 20:10:44;;;;;;;1999.90;999.90;;;1.40;99.90;;;;;;6732328;88;20809;-76
2023/01/29 20:20:48;;;;;;;1999.90;999.90;;;1.50;99.90;;;;;;6746212;88;21085;-76
2023/01/29 20:30:48;;;;;;;1999.90;999.90;;;1.60;99.90;;;;;;6735954;88;20769;-75
2023/01/29 20:40:49;;;;;;;1999.90;999.90;;;1.70;99.90;;;;;;6717696;88;20270;-75
2023/01/29 20:50:49;;;;;;;1999.90;999.90;;;1.80;99.90;;;;;;6717756;88;20335;-76
2023/01/29 21:00:50;;;;;;;1999.90;999.90;;;1.90;99.90;;;;;;6733079;88;20227;-76
2023/01/29 21:10:51;;;;;;;1999.90;999.90;;;1.90;99.90;;;;;;6722937;88;20759;-77
2023/01/29 21:20:53;;;;;;;1999.90;999.90;;;1.80;99.90;;;;;;6725658;88;20371;-77
2023/01/29 21:31:10;;;;;;;1999.90;999.90;;;1.90;99.90;;;;;;6735739;88;20298;-76
2023/01/29 21:41:10;;;;;;;1999.90;999.90;;;2.10;99.90;;;;;;6728740;88;20232;-77
2023/01/29 21:51:11;;;;;;;1999.90;999.90;;;2.10;99.90;;;;;;6724876;88;20256;-77
2023/01/29 22:01:11;;;;;;;1999.90;999.90;;;2.20;99.90;;;;;;6738172;88;20189;-76
2023/01/29 22:11:12;;;;;;;1999.90;999.90;;;2.40;99.90;;;;;;6740773;88;20210;-77
2023/01/29 22:21:13;;;;;;;1999.90;999.90;;;2.50;99.90;;;;;;6755581;88;21050;-76
2023/01/29 22:31:13;;;;;;;1999.90;999.90;;;2.70;99.90;;;;;;6738648;88;20212;-76
2023/01/29 22:41:14;;;;;;;1999.90;999.90;;;2.70;99.90;;;;;;6737420;88;20199;-77
2023/01/29 22:51:14;;;;;;;1999.90;999.90;;;2.90;99.90;;;;;;6730784;88;20518;-76
2023/01/29 23:01:17;;;;;;;1999.90;999.90;;;2.90;99.90;;;;;;6746245;88;20222;-77
2023/01/29 23:11:19;;;;;;;1999.90;999.90;;;3.00;99.90;;;;;;6752478;77;20272;-76
2023/01/29 23:21:24;;;;;;;1999.90;999.90;;;3.10;99.90;;;;;;6756889;87;20654;-77
2023/01/29 23:31:24;;;;;;;1999.90;999.90;;;3.40;99.90;;;;;;6760237;87;20189;-76
2023/01/29 23:41:25;;;;;;;1999.90;999.90;;;3.50;99.90;;;;;;6756341;87;20177;-77
2023/01/29 23:51:25;;;;;;;1999.90;999.90;;;3.50;99.90;;;;;;6753616;87;20621;-77
